Time;durP1;ratioP1;P1;durP2;ratioP2;P2;SDS_P1;SDS_P2;PMS_P1;PMS_P2;Temp;Humidity;BMP_temperature;BMP_pressure;BME280_temperature;BME280_humidity;BME280_pressure;Samples;Min_cycle;Max_cycle;Signal;HPM_P1;HPM_P2
2021/12/06 00:01:11;;;;;;;9.65;8.65;;;8.10;75.10;;;;;;5032315;28;20110;-46
2021/12/06 00:03:46;;;;;;;12.13;9.77;;;8.10;75.00;;;;;;5019603;28;20508;-49
2021/12/06 00:06:20;;;;;;;10.13;9.13;;;8.00;74.90;;;;;;5031153;28;20171;-48
2021/12/06 00:08:51;;;;;;;12.00;8.90;;;8.00;74.80;;;;;;5011786;28;20050;-48
2021/12/06 00:11:21;;;;;;;9.18;8.15;;;8.00;74.70;;;;;;5009811;28;20073;-48
2021/12/06 00:13:51;;;;;;;12.05;8.93;;;7.90;74.50;;;;;;5018248;28;20087;-49
2021/12/06 00:16:22;;;;;;;9.05;7.97;;;7.90;74.30;;;;;;5021347;28;20034;-50
2021/12/06 00:18:52;;;;;;;9.65;8.45;;;7.90;74.20;;;;;;5032030;28;20029;-47
2021/12/06 00:21:23;;;;;;;9.30;8.18;;;7.80;74.30;;;;;;5012130;28;20034;-46
2021/12/06 00:23:52;;;;;;;10.88;8.02;;;7.80;74.40;;;;;;5018841;28;20417;-46
2021/12/06 00:26:19;;;;;;;10.68;8.32;;;7.80;74.50;;;;;;5022735;28;20405;-45
2021/12/06 00:28:46;;;;;;;9.77;8.77;;;7.80;74.70;;;;;;5017387;28;20037;-48
2021/12/06 00:31:14;;;;;;;9.85;8.50;;;7.70;74.70;;;;;;5015016;28;20039;-47
2021/12/06 00:33:42;;;;;;;8.93;7.75;;;7.70;75.00;;;;;;5028291;28;20092;-47
2021/12/06 00:36:16;;;;;;;9.90;8.23;;;7.70;75.10;;;;;;5029744;28;20050;-47
2021/12/06 00:38:45;;;;;;;9.57;8.68;;;7.70;75.20;;;;;;5030469;28;20420;-46
2021/12/06 00:41:14;;;;;;;8.80;7.78;;;7.70;75.20;;;;;;5018389;28;20564;-46
2021/12/06 00:43:41;;;;;;;8.38;7.28;;;7.70;75.30;;;;;;5026398;28;20115;-47
2021/12/06 00:46:08;;;;;;;9.75;8.25;;;7.70;75.30;;;;;;5030922;28;20452;-48
2021/12/06 00:48:35;;;;;;;9.20;8.23;;;7.70;75.30;;;;;;5017087;28;20050;-47
2021/12/06 00:51:04;;;;;;;8.50;7.38;;;7.70;75.20;;;;;;5014021;28;20045;-48
2021/12/06 00:53:31;;;;;;;9.30;7.85;;;7.70;75.20;;;;;;5030214;28;20044;-45
2021/12/06 00:56:03;;;;;;;10.35;8.32;;;7.70;75.20;;;;;;5029324;28;20571;-47
2021/12/06 00:58:30;;;;;;;8.40;7.05;;;7.70;75.20;;;;;;5020770;28;20076;-47
2021/12/06 01:01:02;;;;;;;9.30;7.18;;;7.70;75.10;;;;;;5021210;28;20041;-46
2021/12/06 01:03:32;;;;;;;9.20;7.47;;;7.70;75.00;;;;;;5029704;28;20042;-46
2021/12/06 01:06:01;;;;;;;9.40;7.85;;;7.70;75.00;;;;;;5028959;28;20159;-47
2021/12/06 01:08:31;;;;;;;9.50;8.07;;;7.70;75.00;;;;;;5001520;28;20525;-46
2021/12/06 01:10:58;;;;;;;8.60;7.18;;;7.70;75.00;;;;;;5014871;28;20497;-46
2021/12/06 01:13:28;;;;;;;8.38;7.47;;;7.70;75.00;;;;;;5013574;28;20057;-46
2021/12/06 01:15:55;;;;;;;7.75;7.05;;;7.70;74.90;;;;;;5022921;28;20382;-47
2021/12/06 01:18:27;;;;;;;8.10;6.90;;;7.70;74.90;;;;;;5029593;28;20412;-47
2021/12/06 01:21:26;;;;;;;11.43;7.35;;;7.60;74.90;;;;;;5015272;28;20632;-46
2021/12/06 01:23:59;;;;;;;7.30;6.63;;;7.60;74.90;;;;;;5029507;28;20556;-47
2021/12/06 01:32:12;;;;;;;8.30;7.45;;;7.60;74.90;;;;;;5028836;28;20045;-47
2021/12/06 01:40:21;;;;;;;10.95;9.40;;;7.60;75.20;;;;;;5023028;28;20056;-46
2021/12/06 01:42:49;;;;;;;10.82;9.15;;;7.70;75.40;;;;;;5029158;28;20088;-47
2021/12/06 01:45:24;;;;;;;12.30;9.82;;;7.60;75.40;;;;;;5018514;28;20034;-46
2021/12/06 01:47:51;;;;;;;12.75;9.93;;;7.60;75.60;;;;;;5016340;28;20508;-47
2021/12/06 01:50:27;;;;;;;11.23;9.18;;;7.70;75.60;;;;;;5029121;28;20069;-45
2021/12/06 01:53:04;;;;;;;9.75;8.65;;;7.70;75.80;;;;;;5022506;28;20045;-47
2021/12/06 01:55:38;;;;;;;13.32;9.18;;;7.70;75.60;;;;;;5017118;28;20127;-47
2021/12/06 01:58:13;;;;;;;10.63;8.82;;;7.70;75.50;;;;;;5028514;28;20128;-46
2021/12/06 02:00:53;;;;;;;9.02;8.13;;;7.70;75.50;;;;;;5030632;28;20049;-45
2021/12/06 02:03:30;;;;;;;11.55;9.15;;;7.70;75.50;;;;;;5019383;28;20042;-46
2021/12/06 02:06:00;;;;;;;9.30;8.30;;;7.70;75.40;;;;;;5013862;28;20128;-49
2021/12/06 02:08:27;;;;;;;9.50;8.35;;;7.70;75.40;;;;;;5027334;28;20046;-48
2021/12/06 02:11:01;;;;;;;9.30;8.35;;;7.70;75.40;;;;;;5014471;28;20037;-47
2021/12/06 02:13:42;;;;;;;8.63;7.82;;;7.70;75.40;;;;;;5008096;28;20042;-47
2021/12/06 02:16:09;;;;;;;9.25;8.18;;;7.70;75.30;;;;;;5012964;28;20124;-47
2021/12/06 02:18:45;;;;;;;10.63;8.55;;;7.70;75.40;;;;;;5003357;28;20046;-47
2021/12/06 02:21:28;;;;;;;8.43;7.53;;;7.70;75.40;;;;;;4999571;28;20056;-46
2021/12/06 02:23:57;;;;;;;8.95;7.60;;;7.70;75.40;;;;;;5003413;28;20045;-47
2021/12/06 02:26:27;;;;;;;9.10;8.20;;;7.70;75.30;;;;;;5002688;28;20034;-47
2021/12/06 02:28:54;;;;;;;9.52;7.78;;;7.70;75.30;;;;;;5016639;28;20048;-46
2021/12/06 02:31:27;;;;;;;10.52;8.07;;;7.70;75.30;;;;;;5029847;28;20041;-46
2021/12/06 02:34:03;;;;;;;8.98;8.07;;;7.70;75.40;;;;;;5008326;28;20461;-47
2021/12/06 02:36:33;;;;;;;10.13;8.48;;;7.70;75.30;;;;;;5026948;28;20873;-50
2021/12/06 02:39:09;;;;;;;9.27;8.20;;;7.70;75.30;;;;;;5028570;28;20080;-45
2021/12/06 02:41:37;;;;;;;9.57;7.72;;;7.70;75.40;;;;;;5005945;28;20427;-48
2021/12/06 02:44:09;;;;;;;11.10;9.00;;;7.70;75.40;;;;;;5009774;28;20038;-48
2021/12/06 02:46:40;;;;;;;11.68;9.18;;;7.70;75.50;;;;;;5027466;28;20041;-47
2021/12/06 02:49:07;;;;;;;12.45;9.90;;;7.70;76.10;;;;;;5014811;28;20042;-46
2021/12/06 02:51:34;;;;;;;10.80;8.80;;;7.60;75.50;;;;;;5016247;28;20041;-50
2021/12/06 02:54:03;;;;;;;13.57;9.32;;;7.70;75.60;;;;;;5027694;28;20493;-47
2021/12/06 02:57:21;;;;;;;11.85;9.50;;;7.70;75.50;;;;;;5033363;28;20501;-46
2021/12/06 02:59:23;;;;;;;13.55;9.50;;;7.60;75.40;;;;;;5011304;28;20138;-47
2021/12/06 03:01:59;;;;;;;10.57;9.23;;;7.60;75.50;;;;;;5018583;28;20509;-46
2021/12/06 03:04:28;;;;;;;14.02;9.73;;;7.60;75.50;;;;;;5029149;28;20048;-47
2021/12/06 03:06:57;;;;;;;11.05;8.57;;;7.70;75.60;;;;;;5027536;28;20371;-47
2021/12/06 03:09:33;;;;;;;11.98;9.60;;;7.70;75.60;;;;;;5012352;28;20097;-46
2021/12/06 03:12:04;;;;;;;11.80;9.32;;;7.60;75.60;;;;;;5028465;28;20064;-47
2021/12/06 03:14:38;;;;;;;10.18;8.70;;;7.70;75.50;;;;;;5030306;28;20061;-48
2021/12/06 03:17:12;;;;;;;11.70;9.60;;;7.70;75.40;;;;;;5003533;28;20053;-48
2021/12/06 03:19:40;;;;;;;10.75;8.55;;;7.70;75.30;;;;;;5014783;28;20497;-47
2021/12/06 03:22:09;;;;;;;11.50;8.90;;;7.70;75.30;;;;;;5019940;28;20042;-47
2021/12/06 03:24:38;;;;;;;9.70;8.70;;;7.70;75.20;;;;;;5031437;28;20500;-47
2021/12/06 03:27:10;;;;;;;;;;;7.70;75.10;;;;;;5032279;28;20132;-48
2021/12/06 03:29:38;;;;;;;8.05;7.13;;;7.70;75.10;;;;;;5010997;28;19921;-46
2021/12/06 03:32:07;;;;;;;9.30;7.55;;;7.60;74.70;;;;;;5006454;28;20506;-48
2021/12/06 03:34:39;;;;;;;8.35;7.55;;;7.60;74.70;;;;;;5005604;28;20567;-49
2021/12/06 03:37:08;;;;;;;8.47;7.47;;;7.60;75.30;;;;;;5009629;28;20052;-47
2021/12/06 03:39:44;;;;;;;9.13;8.02;;;7.60;74.70;;;;;;5015408;28;20127;-47
2021/12/06 03:42:26;;;;;;;9.05;8.15;;;7.60;74.80;;;;;;5027833;28;20052;-46
2021/12/06 03:45:10;;;;;;;8.38;7.32;;;7.50;74.90;;;;;;5031180;28;20052;-47
2021/12/06 03:47:40;;;;;;;8.43;7.35;;;7.50;74.80;;;;;;5025383;28;20183;-49
2021/12/06 03:50:12;;;;;;;9.27;7.20;;;7.50;74.80;;;;;;5022534;28;20048;-47
2021/12/06 03:52:41;;;;;;;9.82;7.63;;;7.50;74.80;;;;;;5023008;28;20065;-47
2021/12/06 03:55:13;;;;;;;8.15;6.85;;;7.50;74.80;;;;;;5032435;28;20042;-47
2021/12/06 03:57:44;;;;;;;9.30;7.88;;;7.50;74.80;;;;;;5017656;28;20052;-46
2021/12/06 04:00:14;;;;;;;10.18;7.93;;;7.40;74.70;;;;;;5022392;28;20046;-47
2021/12/06 04:02:52;;;;;;;9.38;8.45;;;7.50;74.80;;;;;;5030943;28;20069;-46
2021/12/06 04:05:21;;;;;;;9.25;8.30;;;7.40;75.40;;;;;;5030813;28;20164;-48
2021/12/06 04:07:51;;;;;;;9.20;8.18;;;7.40;74.80;;;;;;5015697;28;20045;-46
2021/12/06 04:10:19;;;;;;;8.63;7.60;;;7.40;74.80;;;;;;5028853;28;20612;-48
2021/12/06 04:12:47;;;;;;;10.13;8.05;;;7.40;74.80;;;;;;5030649;28;20221;-46
2021/12/06 04:15:24;;;;;;;9.65;8.10;;;7.40;74.80;;;;;;5020012;28;20052;-48
2021/12/06 04:17:53;;;;;;;7.97;7.25;;;7.40;74.70;;;;;;5018068;28;20049;-47
2021/12/06 04:20:23;;;;;;;10.75;8.45;;;7.40;74.70;;;;;;5030596;28;20467;-47
2021/12/06 04:22:54;;;;;;;8.43;7.55;;;7.30;74.50;;;;;;5030122;28;20049;-46
2021/12/06 04:25:23;;;;;;;8.55;7.65;;;7.30;74.40;;;;;;5005635;28;20046;-51
2021/12/06 04:27:56;;;;;;;8.32;7.38;;;7.30;74.20;;;;;;5024609;28;20072;-46
2021/12/06 04:30:31;;;;;;;9.32;7.82;;;7.20;74.00;;;;;;5031569;28;20040;-47
2021/12/06 04:33:02;;;;;;;8.80;7.43;;;7.20;73.80;;;;;;5023190;22;20076;-51
2021/12/06 04:35:29;;;;;;;10.07;7.13;;;7.20;73.70;;;;;;5012742;28;20046;-48
2021/12/06 04:38:02;;;;;;;8.98;7.70;;;7.10;73.50;;;;;;5026273;28;20449;-50
2021/12/06 04:40:30;;;;;;;8.27;6.43;;;7.10;73.20;;;;;;5030568;28;20103;-48
2021/12/06 04:42:58;;;;;;;10.38;6.93;;;7.00;73.10;;;;;;5031048;28;20041;-47
2021/12/06 04:45:27;;;;;;;9.45;6.63;;;6.90;72.90;;;;;;5013728;28;20046;-47
2021/12/06 04:47:55;;;;;;;9.40;7.35;;;6.80;72.80;;;;;;5021783;28;20037;-47
2021/12/06 04:50:32;;;;;;;7.30;6.32;;;6.80;72.70;;;;;;5031621;28;20037;-47
2021/12/06 04:53:08;;;;;;;6.60;5.97;;;6.70;72.60;;;;;;5007001;28;20042;-50
2021/12/06 04:56:02;;;;;;;8.23;6.53;;;6.60;72.50;;;;;;5016230;28;20077;-47
2021/12/06 04:58:40;;;;;;;8.25;6.10;;;6.50;72.40;;;;;;5022947;28;20057;-50
2021/12/06 05:01:13;;;;;;;15.13;7.00;;;6.50;72.50;;;;;;5029650;28;20057;-49
2021/12/06 05:03:41;;;;;;;17.35;6.85;;;6.40;72.80;;;;;;5013139;28;20029;-47
2021/12/06 05:06:20;;;;;;;14.50;6.93;;;6.30;73.00;;;;;;5025140;28;20057;-47
2021/12/06 05:08:53;;;;;;;10.27;5.78;;;6.20;73.00;;;;;;5003073;28;20041;-49
2021/12/06 05:11:27;;;;;;;12.70;5.35;;;6.20;73.20;;;;;;5004292;28;20418;-47
2021/12/06 05:14:00;;;;;;;19.15;5.72;;;6.10;73.30;;;;;;5016100;28;20052;-49
2021/12/06 05:16:35;;;;;;;24.15;6.43;;;6.10;73.40;;;;;;5020417;28;20049;-47
2021/12/06 05:19:04;;;;;;;20.92;5.65;;;6.10;73.70;;;;;;5029633;28;20136;-51
2021/12/06 05:21:39;;;;;;;37.28;7.40;;;6.00;73.80;;;;;;5024265;28;20073;-49
2021/12/06 05:24:07;;;;;;;21.98;7.13;;;6.00;73.90;;;;;;5020902;28;20132;-50
2021/12/06 05:26:36;;;;;;;22.92;7.80;;;6.00;74.00;;;;;;4998086;28;20046;-46
2021/12/06 05:29:06;;;;;;;24.92;7.57;;;5.90;74.00;;;;;;5009432;28;20050;-47
2021/12/06 05:31:39;;;;;;;23.60;7.57;;;5.90;74.00;;;;;;5009214;28;20052;-50
2021/12/06 05:34:14;;;;;;;17.95;9.63;;;5.90;74.00;;;;;;4992925;28;20109;-47
2021/12/06 05:36:43;;;;;;;26.08;9.23;;;5.90;74.00;;;;;;4996861;28;20461;-47
2021/12/06 05:39:12;;;;;;;25.38;9.45;;;5.80;73.90;;;;;;4999828;28;20038;-47
2021/12/06 05:41:39;;;;;;;17.30;8.93;;;5.80;73.90;;;;;;5005661;28;20042;-48
2021/12/06 05:44:06;;;;;;;15.65;7.78;;;5.80;73.90;;;;;;5003472;28;20617;-52
2021/12/06 05:46:32;;;;;;;19.10;9.23;;;5.70;73.80;;;;;;5000844;28;20061;-47
2021/12/06 05:48:59;;;;;;;24.10;9.18;;;5.70;73.90;;;;;;4999862;28;20050;-47
2021/12/06 05:51:30;;;;;;;22.60;9.20;;;5.70;74.00;;;;;;5005078;28;20035;-46
2021/12/06 05:53:57;;;;;;;19.25;8.30;;;5.70;74.00;;;;;;4999314;28;20510;-47
2021/12/06 05:56:26;;;;;;;22.40;7.68;;;5.60;74.10;;;;;;4998682;28;20053;-46
2021/12/06 05:58:55;;;;;;;19.30;8.07;;;5.60;74.30;;;;;;5002599;28;20041;-48
2021/12/06 06:01:28;;;;;;;17.65;9.05;;;5.60;74.40;;;;;;5006349;28;20042;-48
2021/12/06 06:04:01;;;;;;;12.70;8.32;;;5.50;74.40;;;;;;5001279;28;20038;-50
2021/12/06 06:06:32;;;;;;;;;;;5.50;74.50;;;;;;4999205;28;20046;-49
2021/12/06 06:08:59;;;;;;;29.27;9.65;;;5.60;74.60;;;;;;5006456;28;19925;-46
2021/12/06 06:11:26;;;;;;;33.03;9.98;;;5.60;74.40;;;;;;5004583;28;20084;-50
2021/12/06 06:13:53;;;;;;;32.58;10.32;;;5.50;74.50;;;;;;5005223;28;20069;-47
2021/12/06 06:16:22;;;;;;;31.00;9.77;;;5.50;74.60;;;;;;5003925;28;20054;-48
2021/12/06 06:18:51;;;;;;;40.90;9.88;;;5.50;74.80;;;;;;5005590;28;20046;-46
2021/12/06 06:21:20;;;;;;;34.42;8.95;;;5.50;74.90;;;;;;5027364;28;20064;-50
2021/12/06 06:23:47;;;;;;;28.75;8.73;;;5.50;75.10;;;;;;5033871;28;20080;-49
2021/12/06 06:26:14;;;;;;;48.25;9.70;;;5.50;75.10;;;;;;5012694;28;20053;-51
2021/12/06 06:28:43;;;;;;;29.23;10.25;;;5.50;75.10;;;;;;5019109;28;20038;-47
2021/12/06 06:31:10;;;;;;;13.57;8.73;;;5.50;75.10;;;;;;5029045;28;20046;-49
2021/12/06 06:33:37;;;;;;;16.77;9.30;;;5.50;75.10;;;;;;5021256;28;20050;-50
2021/12/06 06:36:04;;;;;;;23.65;8.63;;;5.40;75.00;;;;;;5009721;28;20037;-52
2021/12/06 06:38:31;;;;;;;19.67;8.48;;;5.40;74.90;;;;;;5013071;28;20112;-47
2021/12/06 06:40:59;;;;;;;30.70;10.38;;;5.40;74.80;;;;;;5011132;28;20424;-49
2021/12/06 06:43:26;;;;;;;26.05;9.88;;;5.40;74.80;;;;;;5023578;28;20505;-47
2021/12/06 06:45:54;;;;;;;21.83;9.88;;;5.40;74.80;;;;;;5010645;28;20057;-51
2021/12/06 06:48:21;;;;;;;22.10;10.07;;;5.40;74.90;;;;;;5024412;28;20375;-46
2021/12/06 06:50:48;;;;;;;35.65;10.55;;;5.40;74.80;;;;;;5018224;28;20045;-47
2021/12/06 06:53:14;;;;;;;27.85;12.18;;;5.40;74.80;;;;;;5009416;28;20081;-49
2021/12/06 06:55:41;;;;;;;28.10;12.23;;;5.30;74.70;;;;;;5015665;28;20042;-47
2021/12/06 06:58:12;;;;;;;30.40;12.93;;;5.30;74.80;;;;;;5019662;28;20057;-47
2021/12/06 07:00:41;;;;;;;33.72;12.77;;;5.30;74.80;;;;;;5026938;28;20056;-50
2021/12/06 07:03:08;;;;;;;30.92;11.90;;;5.30;74.80;;;;;;5015311;28;20401;-47
2021/12/06 07:05:37;;;;;;;24.65;11.15;;;5.30;74.80;;;;;;5002874;28;20057;-47
2021/12/06 07:08:04;;;;;;;28.48;11.15;;;5.30;74.70;;;;;;5006661;28;20579;-50
2021/12/06 07:10:31;;;;;;;15.63;10.40;;;5.40;74.70;;;;;;5007961;28;20046;-46
2021/12/06 07:13:04;;;;;;;22.55;10.38;;;5.20;74.70;;;;;;5001790;28;20404;-51
2021/12/06 07:15:33;;;;;;;19.73;9.43;;;5.20;74.80;;;;;;5010700;28;20045;-50
2021/12/06 07:18:02;;;;;;;20.95;10.43;;;5.20;75.00;;;;;;5027117;28;20131;-47
2021/12/06 07:20:32;;;;;;;22.38;10.00;;;5.20;75.20;;;;;;5032531;28;20038;-47
2021/12/06 07:23:01;;;;;;;14.55;9.85;;;5.20;75.30;;;;;;5020443;28;20050;-48
2021/12/06 07:25:31;;;;;;;15.25;11.23;;;5.30;75.40;;;;;;5006898;28;20069;-46
2021/12/06 07:27:59;;;;;;;15.65;10.80;;;5.30;75.50;;;;;;5022565;22;20097;-49
2021/12/06 07:30:26;;;;;;;31.05;11.77;;;5.30;75.60;;;;;;5002415;28;20046;-47
2021/12/06 07:32:54;;;;;;;14.07;11.27;;;5.40;75.70;;;;;;4985302;28;20101;-48
2021/12/06 07:35:22;;;;;;;15.63;10.73;;;5.40;75.70;;;;;;4992295;28;20050;-49
2021/12/06 07:37:50;;;;;;;14.73;10.00;;;5.50;75.80;;;;;;4991085;28;20038;-49
2021/12/06 07:40:17;;;;;;;12.23;9.30;;;5.50;75.80;;;;;;5007169;28;20413;-46
2021/12/06 07:42:44;;;;;;;12.15;9.13;;;5.50;75.80;;;;;;4999263;28;20046;-50
2021/12/06 07:45:13;;;;;;;14.95;9.73;;;5.70;75.80;;;;;;5000008;28;20514;-49
2021/12/06 07:47:42;;;;;;;14.90;10.02;;;5.60;75.80;;;;;;5011406;28;20597;-51
2021/12/06 07:50:12;;;;;;;14.32;10.27;;;5.70;75.60;;;;;;5009480;28;20046;-51
2021/12/06 07:52:50;;;;;;;14.10;10.20;;;5.70;75.50;;;;;;4998416;28;20073;-49
2021/12/06 07:55:21;;;;;;;14.25;9.88;;;5.80;75.40;;;;;;5005842;28;20494;-50
2021/12/06 07:57:49;;;;;;;15.10;11.45;;;5.80;75.30;;;;;;4988554;28;20048;-47
2021/12/06 08:00:21;;;;;;;18.48;12.63;;;5.80;75.30;;;;;;4982992;28;20038;-48
2021/12/06 08:02:48;;;;;;;21.17;11.20;;;5.90;75.40;;;;;;4989117;28;20057;-46
2021/12/06 08:05:31;;;;;;;20.23;10.10;;;5.90;75.30;;;;;;4990577;28;20414;-53
2021/12/06 08:08:19;;;;;;;22.85;10.70;;;5.90;75.40;;;;;;4991224;28;20046;-49
2021/12/06 08:10:52;;;;;;;46.50;13.23;;;6.00;75.40;;;;;;4984060;28;20050;-46
2021/12/06 08:13:22;;;;;;;30.60;11.48;;;6.00;75.30;;;;;;4990877;28;20113;-50
2021/12/06 08:15:56;;;;;;;21.00;12.18;;;6.00;75.40;;;;;;4987203;28;20045;-50
2021/12/06 08:18:24;;;;;;;32.33;12.02;;;6.10;75.60;;;;;;4975654;28;20042;-47
2021/12/06 08:20:54;;;;;;;42.75;13.30;;;6.10;75.50;;;;;;4994444;28;20046;-47
2021/12/06 08:23:21;;;;;;;36.17;13.00;;;6.10;75.60;;;;;;5004840;28;20449;-49
2021/12/06 08:25:50;;;;;;;33.92;14.20;;;6.20;75.70;;;;;;4997438;28;20049;-47
2021/12/06 08:28:18;;;;;;;60.65;13.85;;;6.20;75.80;;;;;;4991559;28;20091;-48
2021/12/06 08:30:44;;;;;;;28.95;13.00;;;6.20;75.90;;;;;;4985838;28;20042;-46
2021/12/06 08:33:12;;;;;;;32.45;13.55;;;6.20;76.00;;;;;;5008930;28;20037;-51
2021/12/06 08:35:48;;;;;;;48.53;15.45;;;6.30;76.10;;;;;;4988932;28;20038;-50
2021/12/06 08:38:16;;;;;;;48.85;14.82;;;6.30;76.20;;;;;;4984431;28;20045;-46
2021/12/06 08:40:45;;;;;;;25.80;13.52;;;6.40;76.20;;;;;;4980410;28;20053;-46
2021/12/06 08:43:19;;;;;;;32.40;13.30;;;6.40;76.30;;;;;;5010014;28;20121;-47
2021/12/06 08:45:54;;;;;;;25.80;13.63;;;6.40;76.30;;;;;;5001730;28;20497;-48
2021/12/06 08:48:24;;;;;;;21.00;12.95;;;6.50;76.30;;;;;;5005799;28;20049;-49
2021/12/06 08:50:57;;;;;;;22.30;12.60;;;6.60;76.20;;;;;;5011890;28;20054;-49
2021/12/06 08:53:25;;;;;;;31.40;13.95;;;6.60;76.20;;;;;;5007167;28;20051;-47
2021/12/06 08:55:53;;;;;;;25.55;13.68;;;6.60;76.10;;;;;;4994482;28;20081;-47
2021/12/06 08:58:20;;;;;;;31.05;14.20;;;6.70;76.20;;;;;;4995639;28;20042;-46
2021/12/06 09:00:47;;;;;;;19.35;13.15;;;6.70;76.80;;;;;;4979560;28;20696;-47
2021/12/06 09:03:14;;;;;;;37.22;14.80;;;6.70;76.20;;;;;;4983855;28;20038;-49
2021/12/06 09:05:46;;;;;;;39.17;13.82;;;6.80;76.30;;;;;;5010274;28;20069;-50
2021/12/06 09:08:14;;;;;;;31.73;14.07;;;6.80;76.30;;;;;;4991794;28;20446;-48
2021/12/06 09:10:47;;;;;;;29.95;12.65;;;6.90;76.40;;;;;;4987399;28;20117;-49
2021/12/06 09:13:18;;;;;;;36.80;14.60;;;6.90;76.20;;;;;;5000591;28;20093;-48
2021/12/06 09:15:45;;;;;;;28.25;13.95;;;7.00;76.20;;;;;;4998813;28;20513;-47
2021/12/06 09:18:12;;;;;;;25.52;14.27;;;7.00;76.10;;;;;;5000942;28;20080;-50
2021/12/06 09:20:42;;;;;;;24.98;13.80;;;7.00;76.10;;;;;;4990266;28;20085;-49
2021/12/06 09:23:09;;;;;;;38.05;14.93;;;7.10;76.90;;;;;;4988754;28;20042;-51
2021/12/06 09:25:36;;;;;;;50.58;16.42;;;7.10;76.20;;;;;;4998587;28;20538;-46
2021/12/06 09:28:04;;;;;;;29.85;15.27;;;7.20;76.10;;;;;;4997502;28;20528;-51
2021/12/06 09:30:33;;;;;;;27.17;15.50;;;7.20;76.10;;;;;;4990503;28;20050;-47
2021/12/06 09:33:04;;;;;;;37.42;17.05;;;7.20;76.20;;;;;;4987671;28;20043;-49
2021/12/06 09:35:36;;;;;;;42.60;17.43;;;7.30;76.20;;;;;;4993093;28;20100;-49
2021/12/06 09:38:05;;;;;;;32.17;16.00;;;7.40;76.10;;;;;;5004869;28;20299;-48
2021/12/06 09:40:34;;;;;;;32.35;18.95;;;7.40;75.90;;;;;;5009462;28;20104;-49
2021/12/06 09:43:02;;;;;;;36.70;18.98;;;7.40;75.90;;;;;;5004918;28;20058;-49
2021/12/06 09:45:31;;;;;;;35.53;18.70;;;7.40;75.90;;;;;;4999550;28;20103;-48
2021/12/06 09:48:00;;;;;;;33.05;17.90;;;7.40;76.00;;;;;;5009267;28;20042;-48
2021/12/06 09:50:43;;;;;;;36.38;19.13;;;7.50;76.20;;;;;;5010335;28;20049;-47
2021/12/06 09:53:11;;;;;;;;;;;7.50;76.40;;;;;;4986049;28;20094;-50
2021/12/06 09:55:39;;;;;;;38.70;18.05;;;7.60;76.50;;;;;;4993037;28;19988;-46
2021/12/06 09:58:06;;;;;;;37.45;20.65;;;7.60;75.90;;;;;;5004537;28;20045;-49
2021/12/06 10:00:38;;;;;;;38.28;18.77;;;7.70;75.90;;;;;;5005623;28;20047;-48
2021/12/06 10:03:05;;;;;;;37.00;20.02;;;7.70;75.90;;;;;;4997866;28;20077;-50
2021/12/06 10:05:32;;;;;;;37.50;19.80;;;7.70;75.90;;;;;;4993198;28;20084;-47
2021/12/06 10:08:00;;;;;;;47.65;21.35;;;7.70;75.80;;;;;;4993623;28;20062;-47
2021/12/06 10:10:28;;;;;;;51.50;19.65;;;7.70;75.70;;;;;;4993878;28;20046;-51
2021/12/06 10:12:56;;;;;;;35.25;18.30;;;7.70;75.50;;;;;;4996407;28;20113;-50
2021/12/06 10:15:25;;;;;;;39.17;19.73;;;7.70;75.40;;;;;;4994581;28;20506;-47
2021/12/06 10:17:54;;;;;;;44.78;20.23;;;7.80;75.40;;;;;;5004898;28;20129;-50
2021/12/06 10:20:21;;;;;;;47.80;18.58;;;7.80;75.40;;;;;;5002428;28;20077;-52
2021/12/06 10:22:50;;;;;;;39.72;18.77;;;7.80;75.40;;;;;;4994363;28;20046;-47
2021/12/06 10:25:18;;;;;;;37.13;17.13;;;7.80;75.50;;;;;;4993251;28;20054;-49
2021/12/06 10:28:03;;;;;;;33.33;18.40;;;7.80;75.50;;;;;;5005802;28;20046;-48
2021/12/06 10:30:34;;;;;;;34.13;18.75;;;7.80;75.50;;;;;;4996782;28;20071;-51
2021/12/06 10:33:23;;;;;;;32.00;17.75;;;7.80;75.90;;;;;;4997996;28;20413;-52
2021/12/06 10:35:52;;;;;;;34.28;16.70;;;7.90;75.60;;;;;;4996259;28;20041;-53
2021/12/06 10:38:27;;;;;;;29.98;17.30;;;7.90;75.10;;;;;;5004227;28;20050;-46
2021/12/06 10:41:00;;;;;;;28.10;16.58;;;7.90;75.00;;;;;;4980259;28;20093;-51
2021/12/06 10:43:27;;;;;;;30.98;16.73;;;7.90;75.00;;;;;;5001706;28;20104;-49
2021/12/06 10:45:56;;;;;;;28.08;17.05;;;7.90;75.10;;;;;;5008970;28;20564;-48
2021/12/06 10:48:30;;;;;;;28.35;16.13;;;8.00;75.20;;;;;;4996461;28;20786;-48
2021/12/06 10:51:00;;;;;;;27.98;15.98;;;7.90;74.90;;;;;;4995656;28;20100;-50
2021/12/06 10:53:35;;;;;;;22.42;14.93;;;8.00;74.90;;;;;;5003919;28;20387;-48
2021/12/06 10:56:14;;;;;;;25.45;15.27;;;8.00;74.70;;;;;;5021005;22;20099;-77
2021/12/06 10:58:41;;;;;;;25.65;15.85;;;8.00;74.50;;;;;;5025582;28;20576;-77
2021/12/06 11:01:14;;;;;;;24.23;15.32;;;8.00;74.20;;;;;;4998998;28;20049;-78
2021/12/06 11:03:47;;;;;;;23.40;16.25;;;8.00;74.00;;;;;;5012220;28;20071;-77
2021/12/06 11:06:25;;;;;;;19.98;14.40;;;7.90;73.90;;;;;;5026182;28;20041;-76
2021/12/06 11:08:54;;;;;;;24.85;16.30;;;8.00;74.20;;;;;;5007011;28;20053;-77
2021/12/06 11:11:28;;;;;;;25.65;15.75;;;7.90;74.00;;;;;;5016882;28;20041;-77
2021/12/06 11:13:58;;;;;;;24.38;15.63;;;7.90;74.00;;;;;;5023177;28;20037;-77
2021/12/06 11:16:29;;;;;;;27.80;16.10;;;8.00;74.20;;;;;;5012562;28;20625;-77
2021/12/06 11:18:59;;;;;;;24.45;15.80;;;7.90;74.20;;;;;;5023248;28;20049;-77
2021/12/06 11:21:28;;;;;;;26.17;15.55;;;7.90;74.30;;;;;;5001909;28;20043;-75
2021/12/06 11:24:15;;;;;;;22.70;14.85;;;8.00;74.20;;;;;;4995058;28;20057;-75
2021/12/06 11:26:44;;;;;;;21.85;14.38;;;8.00;73.90;;;;;;4999112;28;20050;-75
2021/12/06 11:29:16;;;;;;;23.58;15.65;;;8.10;74.20;;;;;;5007489;28;20049;-76
2021/12/06 11:31:56;;;;;;;23.05;15.60;;;8.10;74.00;;;;;;5003012;28;20069;-75
2021/12/06 11:34:28;;;;;;;26.10;16.00;;;8.10;73.90;;;;;;5008879;28;20053;-75
2021/12/06 11:36:56;;;;;;;23.73;14.55;;;8.20;74.00;;;;;;4989511;28;20547;-75
2021/12/06 11:39:24;;;;;;;23.30;14.70;;;8.10;73.80;;;;;;5024979;28;20052;-74
2021/12/06 11:41:56;;;;;;;21.38;14.43;;;8.20;73.90;;;;;;5026968;28;20053;-74
2021/12/06 11:44:33;;;;;;;24.90;15.75;;;8.20;74.00;;;;;;5027910;28;20041;-74
2021/12/06 11:47:08;;;;;;;20.92;13.90;;;8.30;73.60;;;;;;4986179;28;20053;-74
2021/12/06 11:49:37;;;;;;;23.80;14.85;;;8.30;73.90;;;;;;5015221;28;20040;-75
2021/12/06 11:52:07;;;;;;;23.77;15.90;;;8.30;73.90;;;;;;5009117;28;20041;-75
2021/12/06 11:55:06;;;;;;;24.05;16.08;;;8.30;73.90;;;;;;5003769;28;20049;-76
2021/12/06 11:57:41;;;;;;;23.13;15.20;;;8.40;73.60;;;;;;4992791;28;20066;-76
2021/12/06 12:00:22;;;;;;;21.27;14.63;;;8.40;73.40;;;;;;5007883;28;20060;-75
2021/12/06 12:02:53;;;;;;;22.17;14.70;;;8.50;73.00;;;;;;5021868;28;20049;-76
2021/12/06 12:05:25;;;;;;;19.70;13.77;;;8.50;73.40;;;;;;5007413;28;20042;-75
2021/12/06 12:07:57;;;;;;;19.73;13.40;;;8.50;73.50;;;;;;5014903;28;20289;-76
2021/12/06 12:10:41;;;;;;;21.52;13.52;;;8.60;73.30;;;;;;5008107;28;20042;-75
2021/12/06 12:13:10;;;;;;;22.20;14.02;;;8.70;73.10;;;;;;5000292;28;20483;-76
2021/12/06 12:15:37;;;;;;;19.85;13.40;;;8.70;73.50;;;;;;5000961;28;20037;-76
2021/12/06 12:18:05;;;;;;;18.17;12.55;;;8.70;73.50;;;;;;5026946;28;20045;-76
2021/12/06 12:20:50;;;;;;;19.17;13.82;;;8.70;73.50;;;;;;5002894;28;20337;-76
2021/12/06 12:23:17;;;;;;;20.50;14.02;;;8.80;73.20;;;;;;5006216;28;20045;-76
2021/12/06 12:26:01;;;;;;;15.73;11.68;;;8.80;73.10;;;;;;5002634;28;20044;-76
2021/12/06 12:28:36;;;;;;;17.17;12.68;;;8.90;73.00;;;;;;5047428;22;20056;-55
2021/12/06 12:31:06;;;;;;;16.55;11.27;;;8.90;72.60;;;;;;5046473;28;20060;-56
2021/12/06 12:33:33;;;;;;;15.18;11.98;;;8.90;72.50;;;;;;5046796;28;20495;-53
2021/12/06 12:36:11;;;;;;;14.80;11.38;;;8.90;72.30;;;;;;5021086;28;20041;-51
2021/12/06 12:38:41;;;;;;;15.68;11.07;;;9.00;71.90;;;;;;5012934;28;20103;-55
2021/12/06 12:41:12;;;;;;;14.57;10.93;;;9.00;72.20;;;;;;5030321;28;20111;-54
2021/12/06 12:43:41;;;;;;;14.50;11.07;;;9.00;72.30;;;;;;5018492;28;20092;-53
2021/12/06 12:46:19;;;;;;;15.35;11.52;;;9.00;72.50;;;;;;5026380;28;20041;-50
2021/12/06 12:48:56;;;;;;;15.68;10.73;;;9.10;72.50;;;;;;4999443;28;20046;-52
2021/12/06 12:51:48;;;;;;;12.43;9.40;;;9.10;72.40;;;;;;5006440;28;20601;-54
2021/12/06 12:54:28;;;;;;;11.70;9.18;;;9.10;71.30;;;;;;5008034;28;20030;-52
2021/12/06 12:57:03;;;;;;;13.00;9.80;;;9.20;71.60;;;;;;5002389;28;20267;-52
2021/12/06 12:59:50;;;;;;;12.50;10.02;;;9.20;71.50;;;;;;5008270;28;20085;-51
2021/12/06 13:02:30;;;;;;;11.13;8.48;;;9.20;71.40;;;;;;5003101;28;20100;-51
2021/12/06 13:04:57;;;;;;;12.25;8.32;;;9.30;71.50;;;;;;5018933;28;20041;-54
2021/12/06 13:07:30;;;;;;;10.35;7.80;;;9.30;71.80;;;;;;5020976;28;20060;-54
2021/12/06 13:10:19;;;;;;;10.25;8.38;;;9.30;71.60;;;;;;5009760;28;20050;-54
2021/12/06 13:13:10;;;;;;;9.13;7.50;;;9.30;71.40;;;;;;5020555;28;20056;-52
2021/12/06 13:15:57;;;;;;;9.80;7.45;;;9.40;70.70;;;;;;5019391;28;20049;-54
2021/12/06 13:18:35;;;;;;;9.10;7.45;;;9.40;71.10;;;;;;5011137;28;20473;-54